createdAt,value
2019-05-16T00:02:18.619Z,37.17
2019-05-16T00:04:48.161Z,36.96
2019-05-16T00:07:19.143Z,37.05
2019-05-16T00:09:48.345Z,36.85
2019-05-16T00:12:18.382Z,37.05
2019-05-16T00:14:48.980Z,37.50
2019-05-16T00:17:18.843Z,38.00
2019-05-16T00:19:48.368Z,37.95
2019-05-16T00:22:18.232Z,38.68
2019-05-16T00:24:48.781Z,38.48
2019-05-16T00:27:18.602Z,37.80
2019-05-16T00:29:48.737Z,37.62
2019-05-16T00:32:19.106Z,37.96
2019-05-16T00:34:47.877Z,38.09
2019-05-16T00:37:18.190Z,38.27
2019-05-16T00:39:48.210Z,38.07
2019-05-16T00:42:18.007Z,38.25
2019-05-16T00:44:47.838Z,37.97
2019-05-16T00:47:17.891Z,37.75
2019-05-16T00:49:47.997Z,37.84
2019-05-16T00:52:18.439Z,37.18
2019-05-16T00:54:48.615Z,37.52
2019-05-16T00:57:18.819Z,37.84
2019-05-16T00:59:48.557Z,38.00
2019-05-16T01:02:18.143Z,37.80
2019-05-16T01:04:48.741Z,37.26
2019-05-16T01:07:18.694Z,36.97
2019-05-16T01:09:48.820Z,36.75
2019-05-16T01:12:17.803Z,36.73
2019-05-16T01:14:47.824Z,36.47
2019-05-16T01:17:18.239Z,36.45
2019-05-16T01:19:48.420Z,36.78
2019-05-16T01:22:18.665Z,36.85
2019-05-16T01:24:49.264Z,36.80
2019-05-16T01:27:18.483Z,36.75
2019-05-16T01:29:47.729Z,36.40
2019-05-16T01:32:18.832Z,36.79
2019-05-16T01:34:48.317Z,37.09
2019-05-16T01:37:18.571Z,36.90
2019-05-16T01:39:48.387Z,36.77
2019-05-16T01:42:18.419Z,37.06
2019-05-16T01:44:48.729Z,37.11
2019-05-16T01:47:18.313Z,37.17
2019-05-16T01:49:48.801Z,36.89
2019-05-16T01:52:17.916Z,36.88
2019-05-16T01:54:48.136Z,36.94
2019-05-16T01:57:18.163Z,36.91
2019-05-16T01:59:48.567Z,36.98
2019-05-16T02:02:18.395Z,37.21
2019-05-16T02:04:48.535Z,37.35
2019-05-16T02:07:18.817Z,37.39
2019-05-16T02:09:47.768Z,37.51
2019-05-16T02:12:18.345Z,37.64
2019-05-16T02:14:48.107Z,37.81
2019-05-16T02:17:18.421Z,37.91
2019-05-16T02:19:48.540Z,37.77
2019-05-16T02:22:17.951Z,37.77
2019-05-16T02:24:47.993Z,37.83
2019-05-16T02:27:18.203Z,37.88
2019-05-16T02:29:46.943Z,37.98
2019-05-16T02:32:15.501Z,37.62
2019-05-16T02:34:44.018Z,37.54
2019-05-16T02:37:24.033Z,37.46
2019-05-16T02:39:42.836Z,37.50
2019-05-16T02:42:12.091Z,37.73
2019-05-16T02:44:41.454Z,37.72
2019-05-16T02:47:10.929Z,37.72
2019-05-16T02:49:41.953Z,37.55
2019-05-16T02:52:10.813Z,37.72
2019-05-16T02:54:41.229Z,37.70
2019-05-16T02:57:11.189Z,37.86
2019-05-16T02:59:41.511Z,37.73
2019-05-16T03:02:11.432Z,37.81
2019-05-16T03:04:44.096Z,37.77
2019-05-16T03:07:13.421Z,38.07
2019-05-16T03:09:41.292Z,38.07
2019-05-16T03:12:10.692Z,38.30
2019-05-16T03:14:41.914Z,38.20
2019-05-16T03:17:11.335Z,38.14
2019-05-16T03:19:41.758Z,38.12
2019-05-16T03:22:11.636Z,38.32
2019-05-16T03:24:42.009Z,38.54
2019-05-16T03:27:11.200Z,38.59
2019-05-16T03:29:41.763Z,38.81
2019-05-16T03:32:14.200Z,38.95
2019-05-16T03:34:44.120Z,39.04
2019-05-16T03:37:14.339Z,39.16
2019-05-16T03:39:40.964Z,39.30
2019-05-16T03:42:12.462Z,39.08
2019-05-16T03:44:41.089Z,39.13
2019-05-16T03:47:11.175Z,39.00
2019-05-16T03:49:42.291Z,39.13
2019-05-16T03:52:11.299Z,39.44
2019-05-16T03:54:41.985Z,39.08
2019-05-16T03:57:11.591Z,38.97
2019-05-16T03:59:40.797Z,38.78
2019-05-16T04:02:10.848Z,39.01
2019-05-16T04:04:41.698Z,38.97
2019-05-16T04:07:10.974Z,39.28
2019-05-16T04:09:41.280Z,39.50
2019-05-16T04:12:10.790Z,39.27
2019-05-16T04:14:40.945Z,39.10
2019-05-16T04:17:10.931Z,38.94
2019-05-16T04:19:41.524Z,39.02
2019-05-16T04:22:14.434Z,39.08
2019-05-16T04:24:43.341Z,39.10
2019-05-16T04:27:12.285Z,39.25
2019-05-16T04:29:41.044Z,38.95
2019-05-16T04:32:11.044Z,39.09
2019-05-16T04:34:41.747Z,39.41
2019-05-16T04:37:11.494Z,39.10
2019-05-16T04:39:41.531Z,39.25
2019-05-16T04:42:11.063Z,39.21
2019-05-16T04:44:41.645Z,39.46
2019-05-16T04:47:11.048Z,39.21
2019-05-16T04:49:41.285Z,38.93
2019-05-16T04:52:11.331Z,39.01
2019-05-16T04:54:41.876Z,38.84
2019-05-16T04:57:11.941Z,38.93
2019-05-16T04:59:41.873Z,38.69
2019-05-16T05:02:12.319Z,38.81
2019-05-16T05:04:41.519Z,39.02
2019-05-16T05:07:11.090Z,39.03
2019-05-16T05:09:40.807Z,38.92
2019-05-16T05:12:11.422Z,38.98
2019-05-16T05:14:41.594Z,38.72
2019-05-16T05:17:10.764Z,38.93
2019-05-16T05:19:41.464Z,38.84
2019-05-16T05:22:10.448Z,38.71
2019-05-16T05:24:40.622Z,38.41
2019-05-16T05:27:10.496Z,38.48
2019-05-16T05:29:39.798Z,38.07
2019-05-16T05:32:14.002Z,37.97
2019-05-16T05:34:39.857Z,37.57
2019-05-16T05:37:12.265Z,37.19
2019-05-16T05:39:39.724Z,37.11
2019-05-16T05:42:10.402Z,37.10
2019-05-16T05:44:40.162Z,37.04
2019-05-16T05:47:10.799Z,36.48
2019-05-16T05:49:40.479Z,36.25
2019-05-16T05:52:12.040Z,35.98
2019-05-16T05:54:40.817Z,35.90
2019-05-16T05:57:09.898Z,35.42
2019-05-16T05:59:40.426Z,35.58
2019-05-16T06:02:11.258Z,35.48
2019-05-16T06:04:39.590Z,35.38
2019-05-16T06:07:10.150Z,35.47
2019-05-16T06:09:50.498Z,35.80
2019-05-16T06:12:10.516Z,35.10
2019-05-16T06:14:41.837Z,33.63
2019-05-16T06:17:11.446Z,32.79
2019-05-16T06:19:40.191Z,32.55
2019-05-16T06:22:10.190Z,32.96
2019-05-16T06:24:39.903Z,33.37
2019-05-16T06:27:09.858Z,33.13
2019-05-16T06:29:40.265Z,34.32
2019-05-16T06:32:10.280Z,34.63
2019-05-16T06:34:40.389Z,33.79
2019-05-16T06:37:09.836Z,34.28
2019-05-16T06:39:42.675Z,33.11
2019-05-16T06:42:09.874Z,32.63
2019-05-16T06:44:40.120Z,32.32
2019-05-16T06:47:17.000Z,31.17
2019-05-16T06:49:40.253Z,31.47
2019-05-16T06:52:10.458Z,30.45
2019-05-16T06:54:40.716Z,31.27
2019-05-16T06:57:10.609Z,30.24
2019-05-16T06:59:40.482Z,29.92
2019-05-16T07:02:12.261Z,29.49
2019-05-16T07:04:39.810Z,30.07
2019-05-16T07:07:11.919Z,29.56
2019-05-16T07:09:40.638Z,28.63
2019-05-16T07:12:10.505Z,28.62
2019-05-16T07:14:40.553Z,28.56
2019-05-16T07:17:09.772Z,28.31
2019-05-16T07:19:40.645Z,27.05
2019-05-16T07:22:11.110Z,25.70
2019-05-16T07:24:40.024Z,25.69
2019-05-16T07:27:12.168Z,25.04
2019-05-16T07:29:40.216Z,25.91
2019-05-16T07:32:08.828Z,27.83
2019-05-16T07:34:37.416Z,30.71
2019-05-16T07:37:06.288Z,31.35
2019-05-16T07:39:35.150Z,30.98
2019-05-16T07:42:03.677Z,32.91
2019-05-16T07:44:32.271Z,30.71
2019-05-16T07:47:01.202Z,31.12
2019-05-16T07:49:30.427Z,31.72
2019-05-16T07:52:00.556Z,32.00
2019-05-16T07:54:34.132Z,33.40
2019-05-16T07:57:11.507Z,31.29
2019-05-16T07:59:30.091Z,29.76
2019-05-16T08:02:00.533Z,29.71
2019-05-16T08:04:30.413Z,29.65
2019-05-16T08:07:00.640Z,28.74
2019-05-16T08:12:02.285Z,28.88
2019-05-16T08:14:30.827Z,28.77
2019-05-16T08:17:01.109Z,28.02
2019-05-16T08:19:30.578Z,27.50
2019-05-16T08:22:01.382Z,27.32
2019-05-16T08:24:30.989Z,28.03
2019-05-16T08:27:01.297Z,28.61
2019-05-16T08:29:31.650Z,28.46
2019-05-16T08:34:32.239Z,28.03
2019-05-16T08:37:01.262Z,27.91
2019-05-16T08:39:31.073Z,26.67
2019-05-16T08:42:07.781Z,26.45
2019-05-16T08:44:32.378Z,24.96
2019-05-16T08:47:06.289Z,24.80
2019-05-16T08:49:30.877Z,24.86
2019-05-16T08:50:05.092Z,27.83
2019-05-16T08:50:10.273Z,28.91
2019-05-16T08:52:01.455Z,23.03
2019-05-16T08:54:31.828Z,22.43
2019-05-16T08:59:33.963Z,22.09
2019-05-16T09:02:03.951Z,23.50
2019-05-16T09:04:33.978Z,22.37
2019-05-16T09:07:02.159Z,22.23
2019-05-16T09:09:42.325Z,20.32
2019-05-16T09:10:31.974Z,20.56
2019-05-16T09:12:01.469Z,19.89
2019-05-16T09:14:35.206Z,19.52
2019-05-16T09:17:00.378Z,18.32
2019-05-16T09:19:29.172Z,20.06
2019-05-16T09:21:58.145Z,20.24
2019-05-16T09:24:27.401Z,21.21
2019-05-16T09:26:57.876Z,21.10
2019-05-16T09:29:27.300Z,24.33
2019-05-16T09:32:09.065Z,25.16
2019-05-16T09:34:28.340Z,23.80
2019-05-16T09:37:01.628Z,22.89
2019-05-16T09:39:28.112Z,23.09
2019-05-16T09:41:58.750Z,22.32
2019-05-16T09:44:27.398Z,23.97
2019-05-16T09:46:57.005Z,24.40
2019-05-16T09:49:26.123Z,22.53
2019-05-16T09:51:56.780Z,20.45
2019-05-16T09:54:27.333Z,22.66
2019-05-16T09:56:57.173Z,21.55
2019-05-16T09:59:26.346Z,23.09
2019-05-16T10:01:57.213Z,21.06
2019-05-16T10:04:26.709Z,20.08
2019-05-16T10:06:57.255Z,21.99
2019-05-16T10:09:40.244Z,21.96
2019-05-16T10:12:08.227Z,20.75
2019-05-16T10:14:26.850Z,20.49
2019-05-16T10:16:57.721Z,22.45
2019-05-16T10:19:27.547Z,25.80
2019-05-16T10:22:00.040Z,25.80
2019-05-16T10:24:26.995Z,22.56
2019-05-16T10:26:57.209Z,17.95
2019-05-16T10:29:27.411Z,17.52
2019-05-16T10:31:56.894Z,14.66
2019-05-16T10:34:26.569Z,12.48
2019-05-16T10:36:57.514Z,14.10
2019-05-16T10:39:26.791Z,15.32
2019-05-16T10:41:57.402Z,15.09
2019-05-16T10:44:28.032Z,16.00
2019-05-16T10:46:56.235Z,15.72
2019-05-16T10:49:36.487Z,18.48
2019-05-16T10:51:57.559Z,20.19
2019-05-16T10:54:27.613Z,18.61
2019-05-16T10:56:57.695Z,18.16
2019-05-16T10:59:54.542Z,19.49
2019-05-16T11:01:59.570Z,19.17
2019-05-16T11:04:37.219Z,18.73
2019-05-16T11:06:57.367Z,19.91
2019-05-16T11:09:25.922Z,20.42
2019-05-16T11:11:56.961Z,20.33
2019-05-16T11:14:27.945Z,20.37
2019-05-16T11:16:54.996Z,20.48
2019-05-16T11:19:28.073Z,20.23
2019-05-16T11:21:57.352Z,19.65
2019-05-16T11:24:29.002Z,19.79
2019-05-16T11:26:56.758Z,19.81
2019-05-16T11:29:25.404Z,19.05
2019-05-16T11:31:54.183Z,20.00
2019-05-16T11:34:22.708Z,19.53
2019-05-16T11:36:51.272Z,21.60
2019-05-16T11:39:19.784Z,19.88
2019-05-16T11:41:48.309Z,20.51
2019-05-16T11:44:17.630Z,21.35
2019-05-16T11:46:49.093Z,21.66
2019-05-16T11:49:16.715Z,21.19
2019-05-16T11:51:47.192Z,21.77
2019-05-16T11:54:15.907Z,23.49
2019-05-16T11:56:46.397Z,23.63
2019-05-16T11:59:14.927Z,23.12
2019-05-16T12:01:43.673Z,22.10
2019-05-16T12:04:12.212Z,22.75
2019-05-16T12:06:40.852Z,22.80
2019-05-16T12:09:09.969Z,24.16
2019-05-16T12:11:38.547Z,25.13
2019-05-16T12:14:07.457Z,24.48
2019-05-16T12:16:38.018Z,25.02
2019-05-16T12:19:07.041Z,24.37
2019-05-16T12:21:35.944Z,22.71
2019-05-16T12:24:07.238Z,21.71
2019-05-16T12:26:37.303Z,22.58
2019-05-16T12:29:07.020Z,23.17
2019-05-16T12:31:37.386Z,24.09
2019-05-16T12:34:09.473Z,23.54
2019-05-16T12:36:37.849Z,24.12
2019-05-16T12:39:08.174Z,25.04
2019-05-16T12:41:40.991Z,21.85
2019-05-16T12:44:07.677Z,20.11
2019-05-16T12:46:36.593Z,19.67
2019-05-16T12:49:07.061Z,19.32
2019-05-16T12:51:37.012Z,24.71
2019-05-16T12:54:07.558Z,25.91
2019-05-16T12:56:37.745Z,25.12
2019-05-16T12:59:06.163Z,25.35
2019-05-16T13:01:38.374Z,26.51
2019-05-16T13:04:05.392Z,24.81
2019-05-16T13:06:36.951Z,25.40
2019-05-16T13:09:06.952Z,25.29
2019-05-16T13:11:37.791Z,24.50
2019-05-16T13:14:10.150Z,24.51
2019-05-16T13:16:37.549Z,24.18
2019-05-16T13:19:06.985Z,23.39
2019-05-16T13:21:38.125Z,22.92
2019-05-16T13:24:06.958Z,22.58
2019-05-16T13:26:37.313Z,22.54
2019-05-16T13:29:07.297Z,23.95
2019-05-16T13:31:37.755Z,25.63
2019-05-16T13:34:07.468Z,24.73
2019-05-16T13:36:38.847Z,26.18
2019-05-16T13:39:08.067Z,29.50
2019-05-16T13:41:37.833Z,31.00
2019-05-16T13:44:15.750Z,29.82
2019-05-16T13:46:37.255Z,29.26
2019-05-16T13:49:07.282Z,28.63
2019-05-16T13:51:37.367Z,27.44
2019-05-16T13:54:07.040Z,25.10
2019-05-16T13:56:37.674Z,25.50
2019-05-16T13:59:07.715Z,29.15
2019-05-16T14:01:36.989Z,30.60
2019-05-16T14:04:09.551Z,27.76
2019-05-16T14:06:36.875Z,30.06
2019-05-16T14:09:07.421Z,30.05
2019-05-16T14:11:36.501Z,29.31
2019-05-16T14:14:05.192Z,29.82
2019-05-16T14:16:33.705Z,28.75
2019-05-16T14:19:02.223Z,28.28
2019-05-16T14:21:31.067Z,27.43
2019-05-16T14:23:59.595Z,26.93
2019-05-16T14:26:28.136Z,27.20
2019-05-16T14:28:57.878Z,28.45
2019-05-16T14:31:26.816Z,29.49
2019-05-16T14:33:56.779Z,28.14
2019-05-16T14:36:27.908Z,28.38
2019-05-16T14:38:57.544Z,27.65
2019-05-16T14:41:27.874Z,28.09
2019-05-16T14:43:56.511Z,27.25
2019-05-16T14:46:27.465Z,27.87
2019-05-16T14:48:55.271Z,29.29
2019-05-16T14:51:23.801Z,29.15
2019-05-16T14:53:52.349Z,29.13
2019-05-16T14:56:20.838Z,28.92
2019-05-16T14:58:49.365Z,28.95
2019-05-16T15:01:17.894Z,29.46
2019-05-16T15:03:47.257Z,29.63
2019-05-16T15:06:18.258Z,30.27
2019-05-16T15:08:47.484Z,32.70
2019-05-16T15:11:18.041Z,34.59
2019-05-16T15:13:46.402Z,35.47
2019-05-16T15:16:16.983Z,36.56
2019-05-16T15:18:47.491Z,34.50
2019-05-16T15:21:17.684Z,33.96
2019-05-16T15:23:45.797Z,33.47
2019-05-16T15:26:14.292Z,34.43
2019-05-16T15:28:43.131Z,34.71
2019-05-16T15:31:11.658Z,33.71
2019-05-16T15:33:40.557Z,33.51
2019-05-16T15:36:09.078Z,33.79
2019-05-16T15:38:37.596Z,33.19
2019-05-16T15:41:08.219Z,34.68
2019-05-16T15:43:37.075Z,33.84
2019-05-16T15:46:08.071Z,34.40
2019-05-16T15:48:37.033Z,34.60
2019-05-16T15:51:08.666Z,36.54
2019-05-16T15:53:36.324Z,39.11
2019-05-16T15:56:09.609Z,40.57
2019-05-16T15:58:37.425Z,40.70
2019-05-16T16:01:07.038Z,41.11
2019-05-16T16:03:38.090Z,41.19
2019-05-16T16:06:06.824Z,41.97
2019-05-16T16:08:37.341Z,42.03
2019-05-16T16:11:07.398Z,41.80
2019-05-16T16:13:37.430Z,43.21
2019-05-16T16:16:09.796Z,44.04
2019-05-16T16:18:37.653Z,44.17
2019-05-16T16:21:07.506Z,45.16
2019-05-16T16:23:37.270Z,45.67
2019-05-16T16:26:07.082Z,45.62
2019-05-16T16:28:38.218Z,45.88
2019-05-16T16:31:07.571Z,46.89
2019-05-16T16:33:37.496Z,47.66
2019-05-16T16:36:07.815Z,47.66
2019-05-16T16:38:37.191Z,47.52
2019-05-16T16:41:08.082Z,48.17
2019-05-16T16:43:37.288Z,49.55
2019-05-16T16:46:12.922Z,49.58
2019-05-16T16:48:36.289Z,50.46
2019-05-16T16:51:06.558Z,51.05
2019-05-16T16:53:37.510Z,51.00
2019-05-16T16:56:07.420Z,51.58
2019-05-16T16:58:37.299Z,51.38
2019-05-16T17:01:07.212Z,51.54
2019-05-16T17:03:36.747Z,51.86
2019-05-16T17:06:05.291Z,51.66
2019-05-16T17:08:33.821Z,51.67
2019-05-16T17:11:02.384Z,52.04
2019-05-16T17:13:30.899Z,51.96
2019-05-16T17:15:59.419Z,52.03
2019-05-16T17:18:27.938Z,52.36
2019-05-16T17:20:57.123Z,52.46
2019-05-16T17:23:26.414Z,52.61
2019-05-16T17:25:56.625Z,52.54
2019-05-16T17:28:25.442Z,52.24
2019-05-16T17:30:56.519Z,52.25
2019-05-16T17:33:24.183Z,52.02
2019-05-16T17:35:52.706Z,51.81
2019-05-16T17:38:21.449Z,52.44
2019-05-16T17:40:50.081Z,51.30
2019-05-16T17:43:18.932Z,51.40
2019-05-16T17:45:47.731Z,51.76
2019-05-16T17:48:17.647Z,51.56
2019-05-16T17:50:46.839Z,51.07
2019-05-16T17:53:17.295Z,52.01
2019-05-16T17:55:47.259Z,52.10
2019-05-16T17:58:16.515Z,52.64
2019-05-16T18:00:47.061Z,52.47
2019-05-16T18:03:17.350Z,52.49
2019-05-16T18:05:47.478Z,53.09
2019-05-16T18:08:15.931Z,52.83
2019-05-16T18:10:46.950Z,53.10
2019-05-16T18:13:15.169Z,53.63
2019-05-16T18:15:43.675Z,54.21
2019-05-16T18:18:12.461Z,54.35
2019-05-16T18:20:54.816Z,54.59
2019-05-16T18:23:11.287Z,54.27
2019-05-16T18:25:40.141Z,54.67
2019-05-16T18:28:08.661Z,55.04
2019-05-16T18:30:37.240Z,55.33
2019-05-16T18:33:07.419Z,55.63
2019-05-16T18:35:37.017Z,56.46
2019-05-16T18:38:07.233Z,56.84
2019-05-16T18:40:36.773Z,56.59
2019-05-16T18:43:08.099Z,56.29
2019-05-16T18:45:36.614Z,56.61
2019-05-16T18:48:07.496Z,57.02
2019-05-16T18:50:37.916Z,57.90
2019-05-16T18:53:06.970Z,58.47
2019-05-16T18:55:36.962Z,57.98
2019-05-16T18:58:08.523Z,57.90
2019-05-16T19:00:37.622Z,57.66
2019-05-16T19:03:07.717Z,57.52
2019-05-16T19:05:37.328Z,58.06
2019-05-16T19:08:07.432Z,58.04
2019-05-16T19:10:36.838Z,58.77
2019-05-16T19:13:07.989Z,59.58
2019-05-16T19:15:37.502Z,59.91
2019-05-16T19:18:06.784Z,59.79
2019-05-16T19:20:37.587Z,59.57
2019-05-16T19:23:07.495Z,59.81
2019-05-16T19:25:36.284Z,59.16
2019-05-16T19:28:06.918Z,58.87
2019-05-16T19:30:37.510Z,59.06
2019-05-16T19:33:06.892Z,59.23
2019-05-16T19:35:36.176Z,59.84
2019-05-16T19:38:06.720Z,60.35
2019-05-16T19:40:37.725Z,60.84
2019-05-16T19:43:07.224Z,60.68
2019-05-16T19:45:37.296Z,60.78
2019-05-16T19:48:07.199Z,61.21
2019-05-16T19:50:37.128Z,61.37
2019-05-16T19:53:07.771Z,61.35
2019-05-16T19:55:36.703Z,60.89
2019-05-16T19:58:06.831Z,60.73
2019-05-16T20:00:37.602Z,61.23
2019-05-16T20:03:07.754Z,61.41
2019-05-16T20:05:37.582Z,61.23
2019-05-16T20:08:06.778Z,61.09
2019-05-16T20:10:36.647Z,60.71
2019-05-16T20:13:07.503Z,60.36
2019-05-16T20:15:36.641Z,60.05
2019-05-16T20:18:07.590Z,60.63
2019-05-16T20:20:37.157Z,60.44
2019-05-16T20:23:06.347Z,60.45
2019-05-16T20:25:36.515Z,59.90
2019-05-16T20:28:08.507Z,59.40
2019-05-16T20:30:37.108Z,58.74
2019-05-16T20:33:08.973Z,59.03
2019-05-16T20:35:37.567Z,59.39
2019-05-16T20:38:06.892Z,59.40
2019-05-16T20:40:37.558Z,59.48
2019-05-16T20:43:07.745Z,59.83
2019-05-16T20:45:39.495Z,59.88
2019-05-16T20:48:12.185Z,60.28
2019-05-16T20:50:37.280Z,60.46
2019-05-16T20:53:07.150Z,61.06
2019-05-16T20:55:37.716Z,60.46
2019-05-16T20:58:07.789Z,60.64
2019-05-16T21:00:37.830Z,61.32
2019-05-16T21:03:07.198Z,61.49
2019-05-16T21:05:38.199Z,61.58
2019-05-16T21:08:06.599Z,62.06
2019-05-16T21:10:35.268Z,61.71
2019-05-16T21:13:03.849Z,61.87
2019-05-16T21:15:32.377Z,61.92
2019-05-16T21:18:00.920Z,61.96
2019-05-16T21:20:29.891Z,62.02
2019-05-16T21:22:58.758Z,62.48
2019-05-16T21:25:27.265Z,62.39
2019-05-16T21:27:57.249Z,61.80
2019-05-16T21:30:27.374Z,61.49
2019-05-16T21:32:56.522Z,61.79
2019-05-16T21:35:27.067Z,61.85
2019-05-16T21:37:55.316Z,62.48
2019-05-16T21:40:26.301Z,62.46
2019-05-16T21:42:58.521Z,62.30
2019-05-16T21:45:28.439Z,62.66
2019-05-16T21:47:56.606Z,62.96
2019-05-16T21:50:27.365Z,63.39
2019-05-16T21:52:56.569Z,64.46
2019-05-16T21:55:27.367Z,66.00
2019-05-16T21:57:57.477Z,67.69
2019-05-16T22:00:31.472Z,69.22
2019-05-16T22:03:00.019Z,69.52
2019-05-16T22:05:29.000Z,69.07
2019-05-16T22:07:57.516Z,70.45
2019-05-16T22:10:26.726Z,70.84
2019-05-16T22:12:57.128Z,72.21
2019-05-16T22:15:25.761Z,73.13
2019-05-16T22:17:56.501Z,74.62
2019-05-16T22:20:26.937Z,75.64
2019-05-16T22:22:57.268Z,75.56
2019-05-16T22:25:27.290Z,76.85
2019-05-16T22:27:57.616Z,77.84
2019-05-16T22:30:27.299Z,77.04
2019-05-16T22:32:56.195Z,77.64
2019-05-16T22:35:24.703Z,78.40
2019-05-16T22:37:57.698Z,77.38
2019-05-16T22:40:26.810Z,76.20
2019-05-16T22:42:57.394Z,73.79
2019-05-16T22:45:27.056Z,73.49
2019-05-16T22:47:55.849Z,72.28
2019-05-16T22:50:26.924Z,70.41
2019-05-16T22:52:56.962Z,69.89
2019-05-16T22:55:26.480Z,68.97
2019-05-16T22:57:56.437Z,67.91
2019-05-16T23:00:28.462Z,67.59
2019-05-16T23:02:56.996Z,67.82
2019-05-16T23:05:27.383Z,68.29
2019-05-16T23:08:05.016Z,67.47
2019-05-16T23:10:27.990Z,67.44
2019-05-16T23:12:57.139Z,67.85
2019-05-16T23:15:26.563Z,68.38
2019-05-16T23:17:57.391Z,67.93
2019-05-16T23:20:27.800Z,68.23
2019-05-16T23:22:56.293Z,67.62
2019-05-16T23:25:24.857Z,67.25
2019-05-16T23:27:53.367Z,67.11
2019-05-16T23:30:22.122Z,66.70
2019-05-16T23:32:50.638Z,66.29
2019-05-16T23:35:19.253Z,65.99
2019-05-16T23:37:47.801Z,65.97
2019-05-16T23:40:16.284Z,66.51
2019-05-16T23:42:46.505Z,67.41
2019-05-16T23:45:17.077Z,67.14
2019-05-16T23:47:47.103Z,67.40
2019-05-16T23:50:17.053Z,67.76
2019-05-16T23:52:47.057Z,69.04
2019-05-16T23:55:17.470Z,68.74
2019-05-16T23:57:46.709Z,69.08
